Time;durP1;ratioP1;P1;durP2;ratioP2;P2;SDS_P1;SDS_P2;PMS_P1;PMS_P2;Temp;Humidity;BMP_temperature;BMP_pressure;BME280_temperature;BME280_humidity;BME280_pressure;Samples;Min_cycle;Max_cycle;Signal;HPM_P1;HPM_P2
2022/01/25 00:24:23;;;;;;;11.53;7.97;;;;;;;-2.05;50.07;95965.44;5031173;28;20319;-73
2022/01/25 00:27:06;;;;;;;14.90;8.67;;;;;;;-2.07;50.11;95957.16;5032302;28;20555;-74
2022/01/25 00:29:47;;;;;;;13.47;8.13;;;;;;;-2.08;49.69;95956.28;5041922;28;20274;-73
2022/01/25 00:32:17;;;;;;;15.77;8.77;;;;;;;-2.25;49.92;95934.94;5031913;28;20222;-71
2022/01/25 00:34:44;;;;;;;12.60;7.93;;;;;;;-2.07;49.88;95957.97;5031561;28;20184;-70
2022/01/25 00:37:14;;;;;;;14.20;7.67;;;;;;;-2.05;50.24;95957.94;5031185;28;20180;-72
2022/01/25 00:39:43;;;;;;;11.77;7.10;;;;;;;-2.09;49.67;95954.66;5030091;28;20616;-72
2022/01/25 00:42:10;;;;;;;10.73;7.67;;;;;;;-2.06;50.35;95957.09;5030987;28;20180;-71
2022/01/25 00:44:39;;;;;;;9.97;7.57;;;;;;;-2.05;49.72;95952.91;5030602;28;20203;-72
2022/01/25 00:47:08;;;;;;;10.70;7.03;;;;;;;-2.05;50.18;95948.72;5029326;28;20195;-70
2022/01/25 00:49:37;;;;;;;11.70;7.40;;;;;;;-2.04;49.90;95949.53;5030923;28;20195;-70
2022/01/25 00:52:19;;;;;;;10.73;7.47;;;;;;;-2.05;50.13;95943.72;5030727;28;20192;-72
2022/01/25 00:54:50;;;;;;;13.30;7.80;;;;;;;-2.08;50.27;95938.75;5031132;28;20234;-71
2022/01/25 00:57:17;;;;;;;12.57;7.47;;;;;;;-2.04;50.23;95939.53;5029264;28;20199;-72
2022/01/25 00:59:44;;;;;;;12.77;8.03;;;;;;;-2.03;50.13;95943.66;5030225;28;20198;-71
2022/01/25 01:02:14;;;;;;;11.80;8.33;;;;;;;-2.05;50.38;95943.72;5029997;28;20199;-72
2022/01/25 01:04:42;;;;;;;9.03;6.90;;;;;;;-2.04;50.42;95947.03;5030986;28;20199;-71
2022/01/25 01:07:13;;;;;;;13.87;7.93;;;;;;;-2.06;50.36;95942.06;5030689;28;20804;-72
2022/01/25 01:09:42;;;;;;;8.83;7.07;;;;;;;-2.04;50.24;95937.84;5031013;28;20989;-74
2022/01/25 01:12:25;;;;;;;9.83;7.07;;;;;;;-2.05;50.46;95938.69;5030862;28;20183;-72
2022/01/25 01:31:51;;;;;;;12.07;7.50;;;;;;;-2.06;50.56;95927.03;4914231;29;20695;-73
2022/01/25 01:40:12;;;;;;;13.80;8.70;;;;;;;-2.05;50.91;95922.84;4912717;29;20278;-73
2022/01/25 01:45:34;;;;;;;13.50;9.93;;;;;;;-2.04;50.66;95917.78;4901236;29;20195;-72
2022/01/25 01:48:04;;;;;;;19.53;11.33;;;;;;;-2.04;50.77;95927.81;4916363;29;20207;-74
2022/01/25 01:50:35;;;;;;;13.33;8.93;;;;;;;-2.02;50.63;95923.59;4916422;29;20660;-71
2022/01/25 01:53:03;;;;;;;15.77;9.93;;;;;;;-2.02;50.76;95918.59;4918525;29;20221;-71
2022/01/25 01:55:31;;;;;;;17.27;10.40;;;;;;;-2.01;50.73;95924.44;4914167;29;20188;-71
2022/01/25 01:57:59;;;;;;;13.07;9.03;;;;;;;-2.02;50.53;95918.59;4956298;28;20718;-73
2022/01/25 02:00:31;;;;;;;14.13;9.03;;;;;;;-2.04;50.88;95911.97;4953233;28;20194;-71
2022/01/25 02:03:00;;;;;;;15.13;10.03;;;;;;;-2.01;50.88;95914.41;4968778;28;20186;-72
2022/01/25 02:05:28;;;;;;;15.77;9.87;;;;;;;-2.00;50.69;95907.72;4994220;28;20254;-72
2022/01/25 02:07:56;;;;;;;14.40;9.80;;;;;;;-2.00;50.72;95912.72;5030107;28;20198;-72
2022/01/25 02:10:23;;;;;;;12.77;9.30;;;;;;;-2.01;50.96;95911.91;5029989;28;20191;-74
2022/01/25 02:12:52;;;;;;;14.60;9.17;;;;;;;-2.00;50.81;95911.03;5030383;28;20275;-71
2022/01/25 02:15:19;;;;;;;10.03;8.23;;;;;;;-2.00;50.87;95916.03;5029690;28;20278;-73
2022/01/25 02:22:21;;;;;;;12.73;8.50;;;;;;;-1.99;50.95;95907.66;5029456;28;20230;-72
2022/01/25 02:23:30;;;;;;;8.60;7.43;;;;;;;-2.02;51.04;95897.72;5036676;28;20333;-72
2022/01/25 02:25:59;;;;;;;12.50;7.07;;;;;;;-2.02;51.36;95892.72;5036027;28;20180;-71
2022/01/25 02:28:28;;;;;;;10.43;8.07;;;;;;;-2.02;51.13;95888.53;5032260;28;20234;-72
2022/01/25 02:30:56;;;;;;;9.87;7.90;;;;;;;-2.07;51.22;95874.44;5032239;28;20203;-76
2022/01/25 02:33:25;;;;;;;11.90;7.63;;;;;;;-1.99;51.35;95886.78;5033526;28;20195;-73
2022/01/25 02:35:54;;;;;;;8.57;7.47;;;;;;;-2.02;50.97;95880.19;5032092;28;20188;-76
2022/01/25 02:38:23;;;;;;;11.13;7.30;;;;;;;-1.99;50.98;95877.59;5033417;28;20665;-74
2022/01/25 02:40:50;;;;;;;12.23;7.30;;;;;;;-2.04;51.24;95872.69;5032936;28;20210;-73
2022/01/25 02:43:19;;;;;;;10.47;7.63;;;;;;;-2.13;51.07;95855.34;5033665;28;20195;-76
2022/01/25 02:45:52;;;;;;;10.80;7.70;;;;;;;-1.96;51.32;95870.00;5033069;28;20196;-76
2022/01/25 02:48:30;;;;;;;10.47;7.00;;;;;;;-1.95;50.96;95871.66;5033281;28;20345;-73
2022/01/25 02:51:00;;;;;;;10.13;7.63;;;;;;;-1.97;51.29;95867.56;5033003;28;20191;-77
2022/01/25 02:53:28;;;;;;;9.50;7.57;;;;;;;-2.10;51.17;95847.75;5033059;28;20694;-75
2022/01/25 02:55:55;;;;;;;12.83;7.70;;;;;;;-1.95;50.90;95866.63;5033179;28;20194;-73
2022/01/25 02:58:23;;;;;;;10.30;7.60;;;;;;;-1.96;51.25;95865.00;5033207;28;20215;-74
2022/01/25 03:00:50;;;;;;;8.30;7.00;;;;;;;-1.96;50.75;95869.19;5033343;28;20677;-76
2022/01/25 03:03:17;;;;;;;10.83;6.90;;;;;;;-2.04;51.19;95847.63;5032538;28;20253;-73
2022/01/25 03:05:45;;;;;;;13.73;8.13;;;;;;;-1.96;50.93;95851.66;5032574;28;20203;-73
2022/01/25 03:08:15;;;;;;;11.20;6.83;;;;;;;-1.96;50.89;95857.47;5032820;28;20613;-75
2022/01/25 03:10:43;;;;;;;7.87;6.50;;;;;;;-2.12;50.88;95834.44;5032855;28;20242;-73
2022/01/25 03:13:15;;;;;;;12.40;8.87;;;;;;;-1.97;50.89;95855.00;5033200;28;20210;-73
2022/01/25 03:15:56;;;;;;;10.63;7.70;;;;;;;-2.02;51.05;95850.09;5033257;28;20589;-73
2022/01/25 03:18:40;;;;;;;12.53;7.53;;;;;;;-1.99;50.84;95856.72;5036919;28;20686;-73
2022/01/25 03:21:34;;;;;;;12.33;8.37;;;;;;;-2.01;51.03;95851.75;5032804;28;20636;-71
2022/01/25 03:24:05;;;;;;;13.30;8.40;;;;;;;-2.07;51.09;95847.69;5032310;28;20195;-71
2022/01/25 03:26:33;;;;;;;15.33;8.53;;;;;;;-2.04;50.91;95857.63;5032060;28;20183;-71
2022/01/25 03:29:01;;;;;;;12.73;7.57;;;;;;;-2.04;50.69;95851.81;5032583;28;20219;-72
2022/01/25 03:31:28;;;;;;;12.20;8.50;;;;;;;-2.05;51.06;95850.97;5032338;28;20294;-71
2022/01/25 03:33:55;;;;;;;13.37;8.87;;;;;;;-2.06;50.90;95856.03;5033274;28;20207;-71
2022/01/25 03:36:23;;;;;;;11.07;7.83;;;;;;;-2.10;50.60;95849.44;5033118;28;20195;-73
2022/01/25 03:38:50;;;;;;;11.07;7.63;;;;;;;-2.14;50.71;95847.88;5032211;28;20222;-72
2022/01/25 03:41:19;;;;;;;11.93;8.50;;;;;;;-2.15;51.02;95847.03;5032204;28;20207;-73
2022/01/25 03:43:52;;;;;;;12.67;8.83;;;;;;;-2.16;50.93;95844.56;5032496;28;20192;-74
2022/01/25 03:46:25;;;;;;;16.27;8.60;;;;;;;-2.18;50.84;95841.28;5031910;28;20184;-76
2022/01/25 03:51:37;;;;;;;12.10;8.03;;;;;;;-2.22;50.87;95839.69;5031670;28;20183;-72
2022/01/25 03:54:07;;;;;;;13.23;8.30;;;;;;;-2.23;51.06;95840.53;5031999;28;20184;-74
2022/01/25 03:56:36;;;;;;;12.23;8.80;;;;;;;-2.24;50.91;95842.22;5031892;28;20199;-73
2022/01/25 03:59:04;;;;;;;15.80;9.10;;;;;;;-2.30;50.95;95837.34;5031911;28;20228;-75
2022/01/25 04:01:32;;;;;;;14.20;8.80;;;;;;;-2.26;50.87;95843.94;5031446;28;20191;-73
2022/01/25 04:04:02;;;;;;;12.80;8.97;;;;;;;-2.39;50.87;95818.31;5031398;28;20718;-73
2022/01/25 04:06:32;;;;;;;13.23;8.97;;;;;;;-2.31;51.26;95836.50;5030158;28;20192;-75
2022/01/25 04:09:02;;;;;;;13.97;8.93;;;;;;;-2.31;51.31;95839.00;5031632;28;20290;-74
2022/01/25 04:11:29;;;;;;;16.50;10.10;;;;;;;-2.60;50.90;95798.72;5031300;28;20215;-72
2022/01/25 04:13:58;;;;;;;13.87;8.70;;;;;;;-2.37;51.33;95834.16;5031864;28;20191;-74
2022/01/25 04:16:30;;;;;;;13.20;8.30;;;;;;;-2.37;51.36;95831.66;5031698;28;20195;-75
2022/01/25 04:19:06;;;;;;;15.80;9.43;;;;;;;-2.41;51.37;95819.22;5031583;28;20219;-75
2022/01/25 04:27:22;;;;;;;11.30;8.20;;;;;;;-2.37;51.64;95824.13;4950979;29;20637;-76
2022/01/25 04:29:52;;;;;;;12.03;8.07;;;;;;;-2.42;52.02;95817.53;4950926;29;20229;-75
2022/01/25 04:32:19;;;;;;;11.63;8.20;;;;;;;-2.40;51.61;95824.19;4935198;29;20585;-72
2022/01/25 04:35:08;;;;;;;13.27;8.03;;;;;;;-2.39;51.89;95820.81;4950816;29;20230;-74
2022/01/25 04:51:37;;;;;;;9.77;8.07;;;;;;;-2.47;51.49;95831.84;4950131;28;20241;-73
2022/01/25 04:54:10;;;;;;;12.00;8.93;;;;;;;-2.48;51.90;95838.53;4951700;29;20646;-72
2022/01/25 04:56:45;;;;;;;14.80;9.70;;;;;;;-2.54;51.63;95829.47;4973287;28;20193;-71
2022/01/25 04:59:19;;;;;;;14.17;9.43;;;;;;;-2.57;51.63;95831.22;4989220;28;20227;-71
2022/01/25 05:01:51;;;;;;;15.80;9.70;;;;;;;-2.57;52.03;95829.53;4989399;28;20204;-71
2022/01/25 05:04:24;;;;;;;14.53;9.60;;;;;;;-2.59;51.57;95831.25;5016109;28;20217;-73
2022/01/25 05:06:55;;;;;;;16.00;10.60;;;;;;;-2.64;51.35;95823.00;5029445;28;20184;-74
2022/01/25 05:09:22;;;;;;;17.17;11.10;;;;;;;-2.66;51.71;95833.91;5031042;28;20191;-71
2022/01/25 05:11:50;;;;;;;21.57;11.57;;;;;;;-2.71;51.85;95828.19;5030308;28;20198;-74
2022/01/25 05:14:22;;;;;;;18.27;10.70;;;;;;;-2.72;51.68;95837.38;5030626;28;20195;-72
2022/01/25 05:16:54;;;;;;;17.30;10.70;;;;;;;-2.72;51.82;95829.00;5029015;28;20204;-72
2022/01/25 05:22:18;;;;;;;20.63;11.97;;;;;;;-2.79;51.63;95824.13;5027362;28;20887;-72
2022/01/25 05:24:49;;;;;;;18.87;12.57;;;;;;;-2.79;52.15;95821.63;5029020;28;20191;-74
2022/01/25 05:27:20;;;;;;;20.70;12.03;;;;;;;-2.84;51.82;95820.91;5029317;28;20226;-72
2022/01/25 05:29:47;;;;;;;19.80;12.20;;;;;;;-2.86;52.18;95825.09;5030054;28;20257;-70
2022/01/25 05:32:18;;;;;;;21.10;12.60;;;;;;;-2.88;52.15;95824.31;5030298;28;20203;-72
2022/01/25 05:34:47;;;;;;;20.90;12.83;;;;;;;-2.88;51.66;95819.31;5029974;28;20195;-73
2022/01/25 05:37:15;;;;;;;20.23;12.93;;;;;;;-2.95;51.77;95795.25;5029347;28;20191;-69
2022/01/25 05:39:46;;;;;;;18.33;11.97;;;;;;;-2.91;52.00;95799.34;5028838;28;20227;-72
2022/01/25 05:44:59;;;;;;;16.40;11.17;;;;;;;-2.94;52.01;95798.56;4966599;28;20835;-70
2022/01/25 05:47:31;;;;;;;25.70;12.63;;;;;;;-2.97;51.99;95791.13;4967052;28;20292;-71
2022/01/25 05:50:00;;;;;;;17.13;11.27;;;;;;;-2.96;52.17;95790.28;4950364;28;20202;-72
2022/01/25 05:52:28;;;;;;;15.50;11.27;;;;;;;-3.08;52.33;95771.31;4966716;28;20190;-73
2022/01/25 05:54:56;;;;;;;17.70;11.97;;;;;;;-2.94;52.06;95793.56;4969232;28;20197;-73
2022/01/25 05:57:23;;;;;;;19.57;12.77;;;;;;;-2.95;52.25;95792.75;4952256;28;20225;-74
2022/01/25 05:59:51;;;;;;;19.50;11.63;;;;;;;-2.95;52.35;95796.94;4950968;28;20709;-74
2022/01/25 06:02:20;;;;;;;20.23;12.73;;;;;;;-2.94;52.14;95801.06;4975606;28;20212;-72
2022/01/25 06:04:50;;;;;;;21.50;12.23;;;;;;;-2.94;51.61;95806.06;4972320;28;20205;-72
2022/01/25 06:07:18;;;;;;;19.17;12.47;;;;;;;-3.13;52.09;95778.91;4970208;28;20186;-77
2022/01/25 06:09:48;;;;;;;18.47;11.97;;;;;;;-2.89;51.83;95822.66;4970310;28;20205;-72
2022/01/25 06:12:17;;;;;;;20.40;12.27;;;;;;;-2.87;51.87;95825.97;4954267;28;20756;-75
2022/01/25 06:14:45;;;;;;;19.53;11.43;;;;;;;-3.18;51.86;95773.19;4970333;28;20201;-75
2022/01/25 06:17:14;;;;;;;17.80;11.73;;;;;;;-2.83;51.43;95820.03;4970782;28;20188;-77
2022/01/25 06:19:43;;;;;;;21.30;11.57;;;;;;;-2.72;51.67;95824.84;4978244;28;20321;-74
2022/01/25 06:22:11;;;;;;;20.53;11.23;;;;;;;-2.69;51.46;95811.44;4994348;28;20204;-74
2022/01/25 06:24:42;;;;;;;17.80;11.67;;;;;;;-2.56;51.42;95821.16;5011669;28;20200;-76
2022/01/25 06:27:09;;;;;;;18.67;12.27;;;;;;;-2.52;51.13;95815.25;5011474;28;20383;-76
2022/01/25 06:29:36;;;;;;;18.80;11.07;;;;;;;-2.30;50.88;95824.81;5011295;28;20659;-75
2022/01/25 06:32:06;;;;;;;16.53;11.23;;;;;;;-2.16;51.01;95820.34;5011241;28;20188;-76
2022/01/25 06:34:35;;;;;;;20.30;11.70;;;;;;;-1.89;50.54;95816.38;5011119;28;20212;-74
2022/01/25 06:37:02;;;;;;;17.13;11.83;;;;;;;-1.58;50.26;95806.44;5011127;28;20723;-76
2022/01/25 06:39:31;;;;;;;18.73;11.33;;;;;;;-1.13;49.92;95808.66;5011472;28;20216;-76
2022/01/25 06:41:59;;;;;;;19.33;12.77;;;;;;;-0.70;49.58;95811.72;5026188;28;20196;-75
2022/01/25 06:44:26;;;;;;;16.80;11.47;;;;;;;-0.40;49.47;95803.31;5011547;28;20994;-74
2022/01/25 06:46:55;;;;;;;18.10;11.87;;;;;;;-0.29;48.94;95772.84;5010997;28;20230;-74
2022/01/25 06:49:22;;;;;;;18.07;12.27;;;;;;;0.15;48.59;95805.88;5010948;28;20196;-75
2022/01/25 06:51:50;;;;;;;17.23;11.87;;;;;;;0.28;48.29;95799.56;5010258;28;20219;-74
2022/01/25 06:54:17;;;;;;;20.20;12.13;;;;;;;0.36;48.16;95799.34;5010011;28;20196;-75
2022/01/25 06:56:46;;;;;;;14.10;10.27;;;;;;;0.44;48.03;95790.69;5010701;28;20750;-75
2022/01/25 06:59:17;;;;;;;16.80;11.03;;;;;;;0.53;47.98;95791.25;5011085;28;20216;-73
2022/01/25 07:01:46;;;;;;;19.67;12.50;;;;;;;0.60;47.31;95796.00;5010946;28;20188;-75
2022/01/25 07:04:15;;;;;;;15.03;10.40;;;;;;;0.62;47.38;95779.19;5010221;28;20192;-74
2022/01/25 07:06:42;;;;;;;16.33;10.33;;;;;;;0.81;46.83;95797.00;5025282;28;20203;-75
2022/01/25 07:09:09;;;;;;;16.80;10.43;;;;;;;0.99;46.46;95798.91;5010991;28;20199;-76
2022/01/25 07:11:38;;;;;;;16.43;10.87;;;;;;;1.25;46.15;95792.97;5010687;28;20196;-76
2022/01/25 07:14:07;;;;;;;18.23;10.87;;;;;;;1.69;46.04;95790.53;5009617;28;20203;-76
2022/01/25 07:16:36;;;;;;;16.70;10.80;;;;;;;2.22;45.47;95784.31;5010230;28;20251;-74
2022/01/25 07:19:06;;;;;;;17.00;11.17;;;;;;;2.78;45.26;95788.78;5010190;28;20200;-77
2022/01/25 07:21:37;;;;;;;15.57;10.53;;;;;;;3.25;45.21;95776.66;5027984;28;20192;-76
2022/01/25 07:24:06;;;;;;;15.07;11.30;;;;;;;3.75;44.94;95778.63;5029476;28;20199;-75
2022/01/25 07:26:42;;;;;;;13.43;10.30;;;;;;;4.24;44.42;95780.63;5022041;28;20208;-73
2022/01/25 07:29:12;;;;;;;15.47;10.73;;;;;;;4.74;44.01;95769.75;5011123;28;20231;-78
2022/01/25 07:31:39;;;;;;;17.93;11.63;;;;;;;5.26;43.25;95782.31;5010321;28;20196;-77
2022/01/25 07:34:11;;;;;;;13.83;10.07;;;;;;;5.66;42.43;95776.03;5010234;28;20204;-76
2022/01/25 07:36:42;;;;;;;16.80;11.40;;;;;;;6.11;41.83;95777.00;5010413;28;20200;-73
2022/01/25 07:39:12;;;;;;;16.40;11.70;;;;;;;6.09;41.68;95744.97;5010828;28;20279;-75
2022/01/25 07:41:45;;;;;;;14.20;11.13;;;;;;;6.44;41.19;95773.50;5013007;28;20204;-76
2022/01/25 07:44:16;;;;;;;19.20;12.00;;;;;;;6.55;40.61;95776.25;5013072;28;20192;-74
2022/01/25 07:46:43;;;;;;;15.50;11.40;;;;;;;6.60;40.23;95758.19;5012400;28;20207;-73
2022/01/25 07:49:10;;;;;;;18.13;11.80;;;;;;;6.86;39.88;95779.59;5012643;28;20199;-73
2022/01/25 07:51:39;;;;;;;14.73;11.30;;;;;;;6.99;39.46;95778.81;5015337;28;20836;-73
2022/01/25 07:54:14;;;;;;;16.57;11.20;;;;;;;7.20;39.06;95779.25;5025369;28;20207;-75
2022/01/25 07:56:41;;;;;;;16.00;11.00;;;;;;;7.51;38.33;95779.97;5030693;28;20202;-77
2022/01/25 07:59:12;;;;;;;15.50;10.97;;;;;;;7.80;37.88;95785.88;5028302;28;20710;-74
2022/01/25 08:01:46;;;;;;;15.07;11.23;;;;;;;8.15;37.61;95790.50;5030628;28;20214;-75
2022/01/25 08:04:16;;;;;;;14.87;11.03;;;;;;;8.40;37.32;95782.19;5028979;28;20195;-76
2022/01/25 08:06:46;;;;;;;14.83;11.03;;;;;;;8.48;37.48;95793.53;5030329;28;20216;-74
2022/01/25 08:09:13;;;;;;;17.47;12.00;;;;;;;8.32;37.20;95771.63;5029605;28;20199;-76
2022/01/25 08:11:49;;;;;;;16.10;11.57;;;;;;;8.35;36.91;95784.16;5029905;28;20671;-77
2022/01/25 08:14:18;;;;;;;14.73;10.80;;;;;;;8.21;36.83;95783.31;5029540;28;20195;-74
2022/01/25 08:16:48;;;;;;;17.27;11.40;;;;;;;8.10;36.77;95784.88;5031270;28;20199;-75
2022/01/25 08:19:19;;;;;;;14.00;11.07;;;;;;;7.89;36.58;95771.75;5029028;28;20195;-75
2022/01/25 08:21:48;;;;;;;17.03;10.93;;;;;;;7.82;36.59;95778.16;5029394;28;20291;-77
2022/01/25 08:24:18;;;;;;;16.00;11.67;;;;;;;7.64;36.48;95770.72;5029617;28;20703;-76
2022/01/25 08:26:47;;;;;;;15.63;11.77;;;;;;;7.79;36.45;95785.03;5029507;28;20187;-75
2022/01/25 08:32:03;;;;;;;16.33;12.03;;;;;;;7.74;35.94;95765.88;5029430;28;20282;-77
2022/01/25 08:34:31;;;;;;;16.57;11.73;;;;;;;7.66;36.03;95780.81;5027509;28;20257;-75
2022/01/25 08:36:58;;;;;;;16.43;11.70;;;;;;;7.45;35.99;95773.53;5029025;28;20187;-75
2022/01/25 08:39:28;;;;;;;15.40;11.57;;;;;;;7.53;35.98;95775.63;5027307;28;20204;-76
2022/01/25 08:41:55;;;;;;;17.50;12.27;;;;;;;8.20;35.55;95755.34;5029457;28;20219;-72
2022/01/25 08:44:23;;;;;;;17.17;11.73;;;;;;;9.20;33.93;95762.50;5028811;28;20191;-76
2022/01/25 08:46:54;;;;;;;16.03;11.77;;;;;;;8.97;33.98;95769.13;5034362;28;20183;-78
2022/01/25 08:49:23;;;;;;;16.37;11.03;;;;;;;8.60;34.22;95758.78;5034270;28;20195;-75
2022/01/25 08:51:54;;;;;;;16.40;11.10;;;;;;;8.19;34.51;95759.66;5029114;28;20195;-77
2022/01/25 08:54:24;;;;;;;17.47;11.30;;;;;;;7.83;34.70;95744.94;5026979;28;21065;-75
2022/01/25 08:56:51;;;;;;;13.63;10.33;;;;;;;7.55;34.88;95755.97;5028918;28;20670;-75
2022/01/25 08:59:21;;;;;;;16.67;11.57;;;;;;;7.36;35.03;95755.47;5027213;28;20641;-79
2022/01/25 09:04:34;;;;;;;17.00;11.20;;;;;;;6.95;35.37;95754.47;5027215;28;20272;-75
2022/01/25 09:07:02;;;;;;;17.83;11.27;;;;;;;6.73;35.41;95751.50;5026917;28;20202;-76
2022/01/25 09:09:33;;;;;;;17.77;12.20;;;;;;;6.52;35.73;95745.94;5028286;28;20192;-78
2022/01/25 09:12:02;;;;;;;16.03;11.43;;;;;;;6.20;35.95;95720.63;5027040;28;20199;-75
2022/01/25 09:14:35;;;;;;;15.00;10.87;;;;;;;6.18;35.88;95737.69;5028416;28;20188;-77
2022/01/25 09:17:07;;;;;;;17.50;10.83;;;;;;;5.96;36.01;95722.00;5026535;28;20924;-75
2022/01/25 09:19:41;;;;;;;17.93;11.87;;;;;;;5.82;36.15;95716.81;5026277;28;20245;-76
2022/01/25 09:22:10;;;;;;;14.93;10.70;;;;;;;5.55;36.14;95702.16;5026617;28;20202;-75
2022/01/25 09:24:39;;;;;;;16.23;10.37;;;;;;;5.51;36.13;95715.91;5028251;28;20530;-74
2022/01/25 09:27:08;;;;;;;17.10;10.60;;;;;;;4.38;36.47;95550.31;5028112;28;20886;-75
2022/01/25 09:29:35;;;;;;;15.00;11.33;;;;;;;5.41;36.40;95730.00;5026983;28;20255;-73
2022/01/25 09:32:04;;;;;;;16.13;11.23;;;;;;;5.26;36.58;95718.91;5026451;28;20249;-75
2022/01/25 09:34:31;;;;;;;16.13;11.03;;;;;;;5.23;36.66;95725.00;5026121;28;20192;-74
2022/01/25 09:37:01;;;;;;;14.13;10.07;;;;;;;5.26;52.21;95708.78;5026995;28;20219;-76
2022/01/25 09:39:30;;;;;;;18.10;11.40;;;;;;;5.70;65.62;95692.91;5024140;28;20199;-77
2022/01/25 09:42:03;;;;;;;16.07;10.27;;;;;;;6.09;57.74;95724.66;5021936;28;20207;-78
2022/01/25 09:44:31;;;;;;;20.97;11.20;;;;;;;6.09;52.78;95722.09;5029269;28;20572;-77
2022/01/25 09:46:58;;;;;;;13.70;10.97;;;;;;;5.99;49.85;95714.19;5027416;28;20663;-78
2022/01/25 09:49:25;;;;;;;18.30;11.63;;;;;;;5.88;47.82;95714.75;5028699;28;20199;-79
2022/01/25 09:51:55;;;;;;;15.43;10.63;;;;;;;5.71;46.04;95704.72;5032514;28;20199;-78
2022/01/25 09:54:24;;;;;;;14.87;10.30;;;;;;;5.57;44.58;95695.31;5027530;28;20662;-75
2022/01/25 09:56:51;;;;;;;15.67;11.53;;;;;;;5.56;43.81;95706.34;5030037;28;20218;-78
2022/01/25 09:59:18;;;;;;;16.57;11.70;;;;;;;5.48;43.02;95705.94;5026431;28;20199;-75
2022/01/25 10:04:30;;;;;;;17.07;12.23;;;;;;;5.33;41.58;95701.69;5028206;28;20202;-77
2022/01/25 10:06:58;;;;;;;14.83;11.40;;;;;;;5.19;40.86;95682.13;5029765;28;20195;-78
2022/01/25 10:09:40;;;;;;;15.67;11.90;;;;;;;5.19;40.54;95687.19;5031276;28;20195;-76
2022/01/25 10:12:20;;;;;;;13.53;10.77;;;;;;;5.07;40.29;95675.97;5039893;28;20670;-79
2022/01/25 10:15:10;;;;;;;19.57;12.60;;;;;;;5.09;39.86;95683.50;5041145;28;20267;-75
2022/01/25 10:17:41;;;;;;;15.87;11.63;;;;;;;4.99;39.68;95671.28;5034944;28;20194;-75
2022/01/25 10:20:26;;;;;;;17.07;11.77;;;;;;;5.04;39.51;95673.59;5031924;28;20600;-79
2022/01/25 10:23:05;;;;;;;16.07;11.03;;;;;;;4.98;39.52;95661.25;5030066;28;20210;-78
2022/01/25 10:25:42;;;;;;;19.30;12.33;;;;;;;4.87;39.57;95649.13;5029708;28;20191;-78
2022/01/25 10:28:15;;;;;;;17.23;11.83;;;;;;;4.95;39.57;95658.88;5029425;28;20231;-75
2022/01/25 10:30:51;;;;;;;17.97;12.77;;;;;;;5.03;39.21;95670.25;5012665;28;20199;-78
2022/01/25 10:33:50;;;;;;;21.73;12.40;;;;;;;5.02;39.39;95662.72;5028701;28;20274;-78
2022/01/25 10:36:42;;;;;;;18.53;12.30;;;;;;;5.04;39.24;95669.34;5027844;28;20575;-76
2022/01/25 10:39:10;;;;;;;15.20;11.40;;;;;;;4.71;39.16;95607.75;5029360;28;20223;-79
2022/01/25 10:41:42;;;;;;;17.07;11.73;;;;;;;4.97;39.38;95644.41;5011038;28;20318;-78
2022/01/25 10:44:16;;;;;;;17.50;11.20;;;;;;;5.06;39.15;95643.09;5029334;28;20196;-75
2022/01/25 10:46:44;;;;;;;15.50;11.47;;;;;;;5.14;39.17;95654.47;5027666;28;20199;-79
2022/01/25 10:49:16;;;;;;;20.10;12.97;;;;;;;5.15;39.03;95655.28;5029561;28;20199;-77
2022/01/25 10:51:46;;;;;;;15.10;11.83;;;;;;;5.16;39.11;95650.13;5031984;28;20203;-77
2022/01/25 10:54:16;;;;;;;16.07;11.97;;;;;;;5.17;39.15;95644.16;5030852;28;20597;-76
2022/01/25 10:56:47;;;;;;;19.00;12.67;;;;;;;5.19;39.15;95636.50;5032177;28;20619;-77
2022/01/25 10:59:19;;;;;;;19.63;13.30;;;;;;;5.19;39.16;95642.38;5031286;28;20231;-76
2022/01/25 11:01:50;;;;;;;15.13;12.57;;;;;;;5.20;39.15;95633.84;5032062;28;20238;-77
2022/01/25 11:04:22;;;;;;;18.40;12.60;;;;;;;5.14;39.09;95616.44;5031736;28;20287;-77
2022/01/25 11:06:59;;;;;;;20.47;12.53;;;;;;;5.22;39.14;95626.16;5031168;28;20195;-80
2022/01/25 11:09:38;;;;;;;18.07;13.10;;;;;;;5.23;39.11;95627.81;5031460;28;20203;-78
2022/01/25 11:12:12;;;;;;;16.17;11.80;;;;;;;5.21;39.03;95619.47;5030536;28;20206;-79
2022/01/25 11:14:53;;;;;;;18.50;13.33;;;;;;;5.21;39.12;95620.28;5033127;28;20573;-78
2022/01/25 11:17:20;;;;;;;18.27;13.20;;;;;;;5.22;38.97;95627.00;5033610;28;20187;-78
2022/01/25 11:19:48;;;;;;;16.57;12.33;;;;;;;5.23;39.02;95615.13;5037477;28;20204;-77
2022/01/25 11:22:19;;;;;;;20.43;13.37;;;;;;;5.23;39.14;95618.50;5036627;28;20238;-78
2022/01/25 11:24:50;;;;;;;17.90;12.80;;;;;;;5.20;38.86;95605.97;5035083;28;20200;-74
2022/01/25 11:27:20;;;;;;;21.77;13.63;;;;;;;5.16;39.26;95596.88;5032092;28;20564;-75
2022/01/25 11:29:50;;;;;;;17.43;12.53;;;;;;;5.17;39.04;95582.50;5031106;28;20199;-74
2022/01/25 11:32:23;;;;;;;20.23;13.80;;;;;;;5.28;39.08;95597.94;5032997;28;20203;-77
2022/01/25 11:34:52;;;;;;;18.33;12.33;;;;;;;5.26;39.02;95590.41;5029107;28;20222;-78
2022/01/25 11:37:38;;;;;;;20.63;13.07;;;;;;;5.26;39.26;95584.53;5031963;28;20195;-80
2022/01/25 11:40:20;;;;;;;17.77;12.33;;;;;;;5.25;39.03;95581.16;5030179;28;20257;-77
2022/01/25 11:42:54;;;;;;;19.50;12.33;;;;;;;5.16;39.01;95563.94;5032540;28;20206;-77
2022/01/25 11:45:24;;;;;;;17.60;13.33;;;;;;;5.23;39.01;95570.31;5032484;28;20577;-78
2022/01/25 11:47:53;;;;;;;16.70;11.83;;;;;;;4.95;38.97;95524.53;5031713;28;20193;-75
2022/01/25 11:50:26;;;;;;;19.93;13.07;;;;;;;5.22;39.23;95573.75;5031500;28;20199;-76
2022/01/25 11:53:01;;;;;;;16.87;12.23;;;;;;;5.09;38.98;95538.97;5030645;28;20674;-77
2022/01/25 11:55:30;;;;;;;17.87;12.57;;;;;;;5.22;39.21;95558.53;5031782;28;20195;-77
2022/01/25 11:58:03;;;;;;;18.97;12.97;;;;;;;5.22;39.22;95556.00;5028110;28;20203;-79
2022/01/25 12:00:42;;;;;;;17.43;12.53;;;;;;;5.21;39.22;95556.88;5030658;28;20215;-75
2022/01/25 12:03:25;;;;;;;17.03;12.80;;;;;;;5.24;39.13;95555.91;5030554;28;20199;-79
2022/01/25 12:06:03;;;;;;;17.63;12.53;;;;;;;5.08;39.22;95524.69;5030332;28;20200;-79
2022/01/25 12:08:41;;;;;;;17.60;12.10;;;;;;;5.17;39.26;95536.84;5027439;28;20202;-78
2022/01/25 12:11:34;;;;;;;17.37;12.23;;;;;;;5.24;39.28;95550.84;5029615;28;20230;-81
2022/01/25 12:14:18;;;;;;;20.47;13.03;;;;;;;5.23;39.27;95539.06;5030638;28;20639;-77
2022/01/25 12:16:55;;;;;;;16.87;12.37;;;;;;;5.14;39.24;95520.09;5031081;28;20195;-77
2022/01/25 12:19:34;;;;;;;16.83;12.20;;;;;;;5.14;39.26;95522.66;5030791;28;20203;-77
2022/01/25 12:22:14;;;;;;;16.60;11.60;;;;;;;5.19;39.34;95532.53;5030555;28;20612;-75
2022/01/25 12:25:02;;;;;;;19.17;12.47;;;;;;;5.15;39.15;95524.28;5028892;28;20278;-79
2022/01/25 12:27:50;;;;;;;16.17;11.37;;;;;;;5.15;39.26;95523.47;5029167;28;20691;-77
2022/01/25 12:30:32;;;;;;;15.23;12.07;;;;;;;5.12;39.14;95519.34;5028324;28;20670;-78
2022/01/25 12:33:12;;;;;;;19.97;12.80;;;;;;;5.11;39.31;95527.06;5027099;28;20238;-79
2022/01/25 12:35:43;;;;;;;15.73;11.53;;;;;;;5.09;39.34;95527.13;5031361;28;20199;-76
2022/01/25 12:38:14;;;;;;;20.40;13.03;;;;;;;4.90;39.36;95489.31;5036845;28;20675;-78
2022/01/25 12:40:49;;;;;;;19.30;12.80;;;;;;;5.03;39.36;95509.72;5031269;28;20195;-79
2022/01/25 12:43:22;;;;;;;17.97;11.87;;;;;;;4.68;39.42;95453.38;5030498;28;20195;-79
2022/01/25 12:45:56;;;;;;;20.00;12.37;;;;;;;4.98;39.73;95501.56;5030476;28;20642;-79
2022/01/25 12:48:33;;;;;;;18.33;11.53;;;;;;;4.89;39.63;95484.31;5030237;28;20200;-79
2022/01/25 12:51:04;;;;;;;16.30;12.00;;;;;;;4.97;39.59;95494.88;5030379;28;20706;-76
2022/01/25 12:53:35;;;;;;;17.03;12.50;;;;;;;4.65;39.62;95445.91;5029934;28;20208;-81
2022/01/25 12:56:05;;;;;;;16.83;11.63;;;;;;;4.94;39.71;95495.84;5030694;28;20581;-79
2022/01/25 12:58:34;;;;;;;19.43;12.40;;;;;;;4.88;39.64;95480.97;5030636;28;20204;-78
2022/01/25 13:01:16;;;;;;;19.40;12.47;;;;;;;4.89;39.88;95490.22;5030272;28;20219;-79
2022/01/25 13:03:46;;;;;;;15.77;10.97;;;;;;;4.89;39.91;95492.75;5028729;28;20192;-77
2022/01/25 13:06:15;;;;;;;15.43;11.60;;;;;;;4.88;39.79;95488.56;5024710;28;20200;-76
2022/01/25 13:08:50;;;;;;;16.17;12.17;;;;;;;4.72;39.87;95455.66;5025958;28;20195;-79
2022/01/25 13:11:37;;;;;;;17.13;10.73;;;;;;;4.85;39.87;95480.31;5027531;28;20198;-76